createdAt,value
2019-01-24T00:01:08.747Z,89.70
2019-01-24T00:03:36.934Z,90.00
2019-01-24T00:06:05.086Z,90.70
2019-01-24T00:08:33.255Z,90.40
2019-01-24T00:11:05.615Z,90.20
2019-01-24T00:13:33.796Z,88.50
2019-01-24T00:16:06.876Z,88.90
2019-01-24T00:18:34.945Z,89.40
2019-01-24T00:21:03.123Z,90.50
2019-01-24T00:23:31.709Z,90.20
2019-01-24T00:25:59.874Z,90.50
2019-01-24T00:28:29.116Z,90.50
2019-01-24T00:30:57.246Z,90.50
2019-01-24T00:33:25.416Z,90.20
2019-01-24T00:35:53.606Z,90.30
2019-01-24T00:38:22.389Z,90.20
2019-01-24T00:40:50.561Z,89.30
2019-01-24T00:43:19.029Z,88.80
2019-01-24T00:45:47.203Z,89.40
2019-01-24T00:48:15.389Z,88.80
2019-01-24T00:50:43.870Z,88.90
2019-01-24T00:53:12.056Z,89.50
2019-01-24T00:55:40.228Z,89.20
2019-01-24T00:58:08.792Z,89.60
2019-01-24T01:00:36.988Z,90.00
2019-01-24T01:03:05.670Z,90.40
2019-01-24T01:05:34.038Z,90.60
2019-01-24T01:08:02.216Z,90.70
2019-01-24T01:10:30.437Z,90.70
2019-01-24T01:12:58.818Z,90.60
2019-01-24T01:15:27.041Z,90.80
2019-01-24T01:17:55.574Z,90.70
2019-01-24T01:20:24.184Z,90.70
2019-01-24T01:22:52.682Z,90.30
2019-01-24T01:25:20.918Z,89.90
2019-01-24T01:27:51.096Z,90.10
2019-01-24T01:30:21.186Z,90.60
2019-01-24T01:32:49.459Z,90.70
2019-01-24T01:35:17.891Z,90.60
2019-01-24T01:37:46.028Z,91.10
2019-01-24T01:40:14.841Z,90.70
2019-01-24T01:42:43.759Z,90.70
2019-01-24T01:45:14.768Z,90.40
2019-01-24T01:47:42.927Z,90.40
2019-01-24T01:50:13.858Z,90.20
2019-01-24T01:52:42.418Z,90.20
2019-01-24T01:55:10.606Z,89.90
2019-01-24T01:57:39.080Z,89.90
2019-01-24T02:00:09.685Z,88.70
2019-01-24T02:02:38.165Z,89.20
2019-01-24T02:05:07.183Z,89.90
2019-01-24T02:07:36.676Z,89.00
2019-01-24T02:10:06.806Z,89.60
2019-01-24T02:12:35.376Z,90.20
2019-01-24T02:15:04.409Z,90.50
2019-01-24T02:17:33.589Z,89.70
2019-01-24T02:20:01.763Z,89.50
2019-01-24T02:22:29.935Z,87.60
2019-01-24T02:24:58.108Z,87.80
2019-01-24T02:27:26.291Z,89.40
2019-01-24T02:29:54.455Z,89.90
2019-01-24T02:32:22.922Z,90.30
2019-01-24T02:34:51.099Z,90.00
2019-01-24T02:37:19.286Z,88.00
2019-01-24T02:39:47.828Z,86.60
2019-01-24T02:42:17.992Z,89.20
2019-01-24T02:44:46.146Z,90.10
2019-01-24T02:47:15.398Z,90.30
2019-01-24T02:49:43.788Z,89.90
2019-01-24T02:52:12.973Z,90.40
2019-01-24T02:54:41.388Z,90.40
2019-01-24T02:57:11.003Z,90.50
2019-01-24T02:59:39.207Z,90.70
2019-01-24T03:02:11.694Z,90.10
2019-01-24T03:04:40.135Z,89.70
2019-01-24T03:07:08.326Z,90.10
2019-01-24T03:09:37.418Z,90.40
2019-01-24T03:12:05.583Z,90.50
2019-01-24T03:14:33.766Z,90.30
2019-01-24T03:17:01.990Z,90.50
2019-01-24T03:19:30.528Z,90.80
2019-01-24T03:21:58.690Z,90.30
2019-01-24T03:24:27.036Z,90.30
2019-01-24T03:26:55.721Z,90.70
2019-01-24T03:29:23.946Z,90.40
2019-01-24T03:31:52.468Z,90.40
2019-01-24T03:34:21.294Z,90.40
2019-01-24T03:36:49.555Z,90.20
2019-01-24T03:39:18.006Z,90.50
2019-01-24T03:41:46.217Z,90.90
2019-01-24T03:44:14.700Z,90.50
2019-01-24T03:46:42.880Z,90.70
2019-01-24T03:49:11.052Z,89.60
2019-01-24T03:51:39.516Z,89.30
2019-01-24T03:54:08.435Z,90.20
2019-01-24T03:56:36.604Z,90.10
2019-01-24T03:59:04.814Z,90.60
2019-01-24T04:01:33.039Z,90.60
2019-01-24T04:04:01.213Z,91.00
2019-01-24T04:06:35.275Z,90.80
2019-01-24T04:09:05.019Z,91.20
2019-01-24T04:11:33.222Z,89.50
2019-01-24T04:14:02.421Z,90.10
2019-01-24T04:16:30.598Z,90.60
2019-01-24T04:18:58.755Z,90.50
2019-01-24T04:21:28.013Z,90.30
2019-01-24T04:23:57.155Z,88.40
2019-01-24T04:26:25.717Z,87.90
2019-01-24T04:28:53.912Z,89.60
2019-01-24T04:31:22.103Z,90.30
2019-01-24T04:33:50.260Z,91.00
2019-01-24T04:36:18.493Z,91.30
2019-01-24T04:38:47.109Z,91.60
2019-01-24T04:41:15.758Z,91.60
2019-01-24T04:43:44.379Z,91.40
2019-01-24T04:46:13.261Z,91.80
2019-01-24T04:48:41.467Z,91.30
2019-01-24T04:51:10.653Z,91.60
2019-01-24T04:53:38.823Z,91.60
2019-01-24T04:56:06.986Z,91.40
2019-01-24T04:58:36.197Z,91.10
2019-01-24T05:01:04.416Z,91.10
2019-01-24T05:03:32.929Z,90.80
2019-01-24T05:06:01.150Z,90.60
2019-01-24T05:08:29.872Z,90.50
2019-01-24T05:10:58.249Z,90.10
2019-01-24T05:13:26.565Z,89.00
2019-01-24T05:15:55.759Z,88.60
2019-01-24T05:18:24.955Z,89.40
2019-01-24T05:20:54.551Z,88.80
2019-01-24T05:23:22.749Z,88.30
2019-01-24T05:25:51.962Z,86.40
2019-01-24T05:28:21.173Z,88.60
2019-01-24T05:30:51.361Z,90.70
2019-01-24T05:33:19.523Z,91.00
2019-01-24T05:35:48.277Z,91.10
2019-01-24T05:38:23.366Z,91.30
2019-01-24T05:40:51.603Z,91.80
2019-01-24T05:43:20.080Z,91.90
2019-01-24T05:45:48.280Z,92.10
2019-01-24T05:48:20.742Z,92.30
2019-01-24T05:50:49.327Z,91.30
2019-01-24T05:53:17.528Z,90.30
2019-01-24T05:55:45.678Z,88.30
2019-01-24T05:58:14.206Z,90.30
2019-01-24T06:00:51.445Z,90.60
2019-01-24T06:03:19.624Z,91.40
2019-01-24T06:05:48.084Z,91.40
2019-01-24T06:08:16.678Z,91.70
2019-01-24T06:10:45.555Z,91.50
2019-01-24T06:13:13.771Z,91.40
2019-01-24T06:15:42.628Z,91.20
2019-01-24T06:18:11.205Z,90.30
2019-01-24T06:20:39.401Z,90.10
2019-01-24T06:23:07.864Z,90.20
2019-01-24T06:25:36.054Z,91.00
2019-01-24T06:28:04.432Z,90.80
2019-01-24T06:30:32.610Z,91.20
2019-01-24T06:33:00.773Z,91.10
2019-01-24T06:35:29.482Z,90.90
2019-01-24T06:37:58.464Z,91.10
2019-01-24T06:40:27.036Z,92.20
2019-01-24T06:42:55.209Z,91.60
2019-01-24T06:45:23.471Z,91.40
2019-01-24T06:47:51.667Z,91.50
2019-01-24T06:50:19.843Z,91.00
2019-01-24T06:52:48.387Z,90.80
2019-01-24T06:55:25.354Z,90.60
2019-01-24T06:57:53.862Z,91.00
2019-01-24T07:00:23.476Z,91.40
2019-01-24T07:02:51.696Z,92.30
2019-01-24T07:05:20.225Z,92.30
2019-01-24T07:07:49.440Z,91.50
2019-01-24T07:10:18.835Z,90.40
2019-01-24T07:12:47.025Z,90.50
2019-01-24T07:15:17.734Z,90.00
2019-01-24T07:17:45.905Z,90.60
2019-01-24T07:20:14.374Z,90.50
2019-01-24T07:22:42.570Z,90.60
2019-01-24T07:25:13.289Z,90.50
2019-01-24T07:27:41.481Z,90.10
2019-01-24T07:30:11.534Z,90.40
2019-01-24T07:32:39.900Z,89.50
2019-01-24T07:35:10.301Z,88.60
2019-01-24T07:37:38.458Z,88.10
2019-01-24T07:40:07.145Z,89.00
2019-01-24T07:42:35.319Z,88.00
2019-01-24T07:45:03.508Z,86.80
2019-01-24T07:47:31.912Z,88.50
2019-01-24T07:50:00.041Z,90.30
2019-01-24T07:52:28.227Z,90.60
2019-01-24T07:54:56.761Z,91.20
2019-01-24T07:57:25.471Z,91.20
2019-01-24T07:59:53.647Z,90.90
2019-01-24T08:02:21.829Z,91.40
2019-01-24T08:04:50.297Z,90.80
2019-01-24T08:07:18.488Z,90.90
2019-01-24T08:09:47.904Z,91.00
2019-01-24T08:12:16.378Z,91.00
2019-01-24T08:14:44.595Z,90.00
2019-01-24T08:17:13.744Z,90.20
2019-01-24T08:19:41.920Z,89.20
2019-01-24T08:22:10.432Z,88.80
2019-01-24T08:24:38.574Z,88.70
2019-01-24T08:27:08.092Z,87.70
2019-01-24T08:29:37.304Z,87.80
2019-01-24T08:32:05.450Z,90.50
2019-01-24T08:34:40.621Z,87.10
2019-01-24T08:37:15.738Z,88.30
2019-01-24T08:39:48.384Z,90.20
2019-01-24T08:42:24.820Z,90.30
2019-01-24T08:44:55.116Z,90.00
2019-01-24T08:47:35.770Z,90.30
2019-01-24T08:50:08.437Z,89.90
2019-01-24T08:52:40.804Z,88.40
2019-01-24T08:55:15.399Z,86.40
2019-01-24T08:57:51.572Z,85.00
2019-01-24T09:00:21.859Z,84.70
2019-01-24T09:02:50.112Z,83.30
2019-01-24T09:05:18.306Z,84.40
2019-01-24T09:07:46.846Z,86.50
2019-01-24T09:10:18.687Z,88.00
2019-01-24T09:12:47.910Z,86.80
2019-01-24T09:15:16.070Z,87.00
2019-01-24T09:17:46.398Z,87.80
2019-01-24T09:20:16.992Z,86.70
2019-01-24T09:22:46.090Z,85.90
2019-01-24T09:25:15.439Z,87.50
2019-01-24T09:27:43.609Z,87.20
2019-01-24T09:30:14.667Z,87.00
2019-01-24T09:32:43.870Z,87.10
2019-01-24T09:35:12.043Z,85.50
2019-01-24T09:37:40.184Z,84.80
2019-01-24T09:40:09.894Z,86.00
2019-01-24T09:42:40.423Z,87.30
2019-01-24T09:45:17.008Z,87.00
2019-01-24T09:47:46.481Z,86.80
2019-01-24T09:50:19.379Z,85.20
2019-01-24T09:52:48.535Z,83.80
2019-01-24T09:55:17.390Z,85.30
2019-01-24T09:57:47.743Z,87.00
2019-01-24T10:00:23.218Z,87.20
2019-01-24T10:02:54.488Z,86.40
2019-01-24T10:05:23.776Z,85.30
2019-01-24T10:07:52.988Z,86.50
2019-01-24T10:10:24.488Z,87.10
2019-01-24T10:12:53.442Z,87.50
2019-01-24T10:15:31.279Z,87.20
2019-01-24T10:17:59.452Z,87.60
2019-01-24T10:20:33.744Z,87.20
2019-01-24T10:23:34.526Z,88.20
2019-01-24T10:26:16.853Z,86.70
2019-01-24T10:29:12.669Z,85.40
2019-01-24T10:31:53.045Z,87.00
2019-01-24T10:34:28.166Z,86.80
2019-01-24T10:36:56.432Z,86.40
2019-01-24T10:39:29.691Z,82.90
2019-01-24T10:41:58.904Z,82.00
2019-01-24T10:44:34.675Z,82.60
2019-01-24T10:47:04.011Z,83.90
2019-01-24T10:49:34.319Z,85.80
2019-01-24T10:52:03.542Z,84.30
2019-01-24T10:54:47.223Z,84.20
2019-01-24T10:57:26.875Z,84.20
2019-01-24T10:59:58.546Z,82.50
2019-01-24T11:02:32.684Z,82.60
2019-01-24T11:05:01.166Z,81.20
2019-01-24T11:07:31.382Z,81.40
2019-01-24T11:10:10.222Z,81.10
2019-01-24T11:12:37.528Z,81.10
2019-01-24T11:15:07.543Z,78.60
2019-01-24T11:17:36.779Z,79.20
2019-01-24T11:20:06.766Z,80.50
2019-01-24T11:22:40.787Z,80.80
2019-01-24T11:25:19.521Z,79.20
2019-01-24T11:27:49.751Z,75.20
2019-01-24T11:30:24.544Z,75.50
2019-01-24T11:32:52.784Z,76.50
2019-01-24T11:35:23.968Z,76.60
2019-01-24T11:37:53.896Z,76.40
2019-01-24T11:40:28.735Z,77.20
2019-01-24T11:43:02.805Z,78.20
2019-01-24T11:45:36.709Z,77.90
2019-01-24T11:48:05.107Z,78.00
2019-01-24T11:50:33.295Z,79.80
2019-01-24T11:53:01.476Z,80.50
2019-01-24T11:55:30.674Z,81.60
2019-01-24T11:58:05.120Z,79.70
2019-01-24T12:00:43.863Z,78.60
2019-01-24T12:03:12.481Z,80.70
2019-01-24T12:05:43.416Z,78.50
2019-01-24T12:08:12.676Z,78.10
2019-01-24T12:10:40.815Z,78.80
2019-01-24T12:13:12.219Z,78.20
2019-01-24T12:15:44.901Z,77.20
2019-01-24T12:18:13.138Z,80.20
2019-01-24T12:20:41.606Z,83.90
2019-01-24T12:23:09.755Z,83.80
2019-01-24T12:25:37.947Z,84.50
2019-01-24T12:28:07.145Z,84.70
2019-01-24T12:30:36.134Z,84.10
2019-01-24T12:33:11.383Z,85.20
2019-01-24T12:35:39.591Z,85.00
2019-01-24T12:38:09.790Z,85.20
2019-01-24T12:40:38.445Z,83.50
2019-01-24T12:43:06.983Z,83.00
2019-01-24T12:45:41.172Z,83.30
2019-01-24T12:48:17.598Z,80.90
2019-01-24T12:50:45.791Z,76.90
2019-01-24T12:53:16.046Z,76.70
2019-01-24T12:55:44.733Z,76.70
2019-01-24T12:58:14.223Z,75.00
2019-01-24T13:00:48.818Z,75.90
2019-01-24T13:03:18.402Z,75.70
2019-01-24T13:05:47.901Z,76.20
2019-01-24T13:08:16.598Z,74.00
2019-01-24T13:10:44.782Z,73.80
2019-01-24T13:13:12.951Z,75.20
2019-01-24T13:15:41.190Z,73.50
2019-01-24T13:18:09.297Z,73.40
2019-01-24T13:20:38.526Z,74.70
2019-01-24T13:23:06.672Z,74.90
2019-01-24T13:25:35.098Z,75.40
2019-01-24T13:28:03.298Z,75.10
2019-01-24T13:30:32.725Z,76.30
2019-01-24T13:33:00.900Z,75.70
2019-01-24T13:35:29.369Z,74.30
2019-01-24T13:37:57.561Z,74.20
2019-01-24T13:40:28.196Z,74.00
2019-01-24T13:42:56.665Z,74.20
2019-01-24T13:45:35.272Z,75.60
2019-01-24T13:48:09.698Z,75.20
2019-01-24T13:50:42.171Z,72.00
2019-01-24T13:53:10.390Z,73.30
2019-01-24T13:55:39.895Z,73.80
2019-01-24T13:58:08.284Z,74.80
2019-01-24T14:00:38.393Z,74.00
2019-01-24T14:03:13.787Z,73.40
2019-01-24T14:05:44.026Z,71.10
2019-01-24T14:08:12.219Z,71.50
2019-01-24T14:10:41.569Z,69.00
2019-01-24T14:13:09.775Z,67.70
2019-01-24T14:15:38.949Z,68.20
2019-01-24T14:18:07.168Z,68.80
2019-01-24T14:20:43.415Z,67.70
2019-01-24T14:23:11.954Z,66.60
2019-01-24T14:25:46.480Z,66.30
2019-01-24T14:28:14.739Z,66.80
2019-01-24T14:30:42.976Z,67.10
2019-01-24T14:33:11.180Z,67.40
2019-01-24T14:35:40.404Z,67.40
2019-01-24T14:38:08.609Z,68.00
2019-01-24T14:40:37.839Z,67.60
2019-01-24T14:43:06.306Z,67.90
2019-01-24T14:45:34.451Z,67.30
2019-01-24T14:48:03.710Z,67.30
2019-01-24T14:50:38.528Z,68.20
2019-01-24T14:53:06.230Z,69.30
2019-01-24T14:55:35.452Z,66.60
2019-01-24T14:58:05.683Z,65.20
2019-01-24T15:00:48.536Z,66.50
2019-01-24T15:03:17.829Z,66.40
2019-01-24T15:05:46.059Z,66.80
2019-01-24T15:08:14.923Z,67.50
2019-01-24T15:10:42.708Z,67.60
2019-01-24T15:13:12.972Z,66.80
2019-01-24T15:15:47.248Z,68.50
2019-01-24T15:18:17.562Z,69.00
2019-01-24T15:20:47.715Z,71.00
2019-01-24T15:23:16.903Z,71.20
2019-01-24T15:25:53.499Z,71.70
2019-01-24T15:28:23.067Z,73.10
2019-01-24T15:30:51.263Z,71.30
2019-01-24T15:33:19.436Z,71.90
2019-01-24T15:35:47.635Z,70.70
2019-01-24T15:38:21.701Z,70.10
2019-01-24T15:40:50.893Z,70.10
2019-01-24T15:43:19.076Z,70.50
2019-01-24T15:45:47.248Z,70.00
2019-01-24T15:48:15.465Z,69.00
2019-01-24T15:50:43.579Z,68.60
2019-01-24T15:53:12.026Z,69.40
2019-01-24T15:55:40.301Z,70.00
2019-01-24T15:58:08.533Z,69.80
2019-01-24T16:00:44.145Z,68.90
2019-01-24T16:03:12.644Z,68.80
2019-01-24T16:05:47.889Z,70.30
2019-01-24T16:08:37.412Z,70.10
2019-01-24T16:11:11.494Z,70.30
2019-01-24T16:13:39.651Z,72.40
2019-01-24T16:16:21.348Z,72.90
2019-01-24T16:19:01.833Z,73.90
2019-01-24T16:22:07.163Z,72.50
2019-01-24T16:24:42.286Z,72.40
2019-01-24T16:27:13.667Z,73.10
2019-01-24T16:29:48.262Z,74.10
2019-01-24T16:32:23.700Z,75.10
2019-01-24T16:35:01.243Z,75.80
2019-01-24T16:37:40.819Z,75.30
2019-01-24T16:40:54.224Z,75.60
2019-01-24T16:43:23.466Z,75.10
2019-01-24T16:45:55.917Z,78.50
2019-01-24T16:48:28.712Z,80.00
2019-01-24T16:51:04.244Z,80.80
2019-01-24T16:53:31.000Z,81.50
2019-01-24T16:56:03.529Z,80.30
2019-01-24T16:58:31.745Z,80.50
2019-01-24T17:01:08.602Z,82.20
2019-01-24T17:03:38.135Z,82.10
2019-01-24T17:06:06.293Z,82.90
2019-01-24T17:08:34.435Z,81.60
2019-01-24T17:11:02.662Z,83.20
2019-01-24T17:13:31.440Z,85.20
2019-01-24T17:15:59.876Z,86.80
2019-01-24T17:18:28.096Z,87.20
2019-01-24T17:20:56.490Z,87.30
2019-01-24T17:23:24.709Z,86.60
2019-01-24T17:25:54.177Z,85.90
2019-01-24T17:28:22.504Z,87.00
2019-01-24T17:30:50.721Z,86.40
2019-01-24T17:33:20.219Z,86.20
2019-01-24T17:35:48.409Z,86.40
2019-01-24T17:38:23.877Z,87.20
2019-01-24T17:40:48.934Z,86.20
2019-01-24T17:43:17.131Z,85.80
2019-01-24T17:45:45.263Z,87.40
2019-01-24T17:48:32.827Z,87.80
2019-01-24T17:51:01.242Z,85.80
2019-01-24T17:53:29.494Z,86.60
2019-01-24T17:55:57.635Z,86.40
2019-01-24T17:58:25.851Z,86.00
2019-01-24T18:00:54.298Z,86.00
2019-01-24T18:03:22.447Z,86.10
2019-01-24T18:05:51.694Z,85.90
2019-01-24T18:08:19.878Z,86.50
2019-01-24T18:10:49.042Z,87.00
2019-01-24T18:13:17.607Z,87.10
2019-01-24T18:15:46.629Z,86.00
2019-01-24T18:18:15.524Z,84.60
2019-01-24T18:20:44.583Z,83.50
2019-01-24T18:23:19.946Z,83.60
2019-01-24T18:25:47.074Z,84.60
2019-01-24T18:28:15.272Z,85.10
2019-01-24T18:30:43.472Z,84.10
2019-01-24T18:33:11.838Z,82.80
2019-01-24T18:35:40.580Z,82.20
2019-01-24T18:38:08.840Z,81.80
2019-01-24T18:40:38.081Z,82.60
2019-01-24T18:43:11.959Z,82.60
2019-01-24T18:45:44.752Z,82.90
2019-01-24T18:48:12.961Z,83.60
2019-01-24T18:50:41.142Z,84.30
2019-01-24T18:53:11.579Z,84.20
2019-01-24T18:55:37.858Z,86.30
2019-01-24T18:58:07.331Z,86.50
2019-01-24T19:00:40.575Z,87.40
2019-01-24T19:03:09.399Z,86.60
2019-01-24T19:05:40.742Z,87.10
2019-01-24T19:08:08.976Z,87.50
2019-01-24T19:10:37.161Z,86.40
2019-01-24T19:13:06.726Z,85.00
2019-01-24T19:15:34.917Z,86.30
2019-01-24T19:18:03.108Z,87.50
2019-01-24T19:20:31.245Z,89.00
2019-01-24T19:22:59.420Z,89.40
2019-01-24T19:25:28.642Z,90.20
2019-01-24T19:27:57.136Z,90.10
2019-01-24T19:30:27.553Z,90.00
2019-01-24T19:32:55.720Z,89.60
2019-01-24T19:35:23.875Z,90.00
2019-01-24T19:37:52.059Z,88.40
2019-01-24T19:40:21.864Z,88.00
2019-01-24T19:42:50.927Z,86.80
2019-01-24T19:45:20.669Z,87.10
2019-01-24T19:47:48.839Z,85.30
2019-01-24T19:50:19.258Z,84.30
2019-01-24T19:52:47.712Z,84.70
2019-01-24T19:55:15.908Z,85.10
2019-01-24T19:57:44.425Z,84.50
2019-01-24T20:00:15.463Z,84.30
2019-01-24T20:02:43.631Z,83.40
2019-01-24T20:05:11.947Z,83.90
2019-01-24T20:07:40.156Z,83.20
2019-01-24T20:10:12.093Z,82.90
2019-01-24T20:12:40.300Z,84.20
2019-01-24T20:15:11.599Z,85.00
2019-01-24T20:17:40.747Z,84.50
2019-01-24T20:20:11.234Z,84.30
2019-01-24T20:22:39.499Z,83.80
2019-01-24T20:25:10.450Z,83.60
2019-01-24T20:27:38.649Z,83.30
2019-01-24T20:30:09.322Z,82.60
2019-01-24T20:32:38.773Z,82.60
2019-01-24T20:35:11.517Z,82.60
2019-01-24T20:37:40.661Z,83.00
2019-01-24T20:40:09.796Z,82.40
2019-01-24T20:42:38.774Z,82.40
2019-01-24T20:45:07.050Z,82.60
2019-01-24T20:47:35.206Z,84.70
2019-01-24T20:50:03.535Z,86.80
2019-01-24T20:52:31.774Z,87.20
2019-01-24T20:54:59.944Z,85.70
2019-01-24T20:57:28.495Z,84.50
2019-01-24T20:59:56.729Z,83.50
2019-01-24T21:02:24.874Z,83.20
2019-01-24T21:04:54.636Z,83.60
2019-01-24T21:07:21.535Z,84.00
2019-01-24T21:09:50.001Z,83.60
2019-01-24T21:12:18.213Z,84.10
2019-01-24T21:14:46.908Z,85.10
2019-01-24T21:17:17.608Z,84.70
2019-01-24T21:19:45.778Z,84.60
2019-01-24T21:22:14.895Z,85.90
2019-01-24T21:24:43.726Z,85.50
2019-01-24T21:27:11.922Z,86.50
2019-01-24T21:29:40.102Z,88.10
2019-01-24T21:32:09.311Z,89.40
2019-01-24T21:34:37.460Z,89.10
2019-01-24T21:37:05.667Z,90.10
2019-01-24T21:39:33.872Z,89.00
2019-01-24T21:42:02.254Z,87.30
2019-01-24T21:44:30.522Z,86.90
2019-01-24T21:46:58.732Z,86.30
2019-01-24T21:49:27.227Z,87.60
2019-01-24T21:51:55.370Z,86.50
2019-01-24T21:54:23.587Z,87.60
2019-01-24T21:56:51.736Z,86.70
2019-01-24T21:59:19.997Z,85.20
2019-01-24T22:01:48.199Z,85.00
2019-01-24T22:04:16.631Z,84.70
2019-01-24T22:06:45.866Z,83.80
2019-01-24T22:09:14.114Z,83.20
2019-01-24T22:11:42.309Z,83.60
2019-01-24T22:14:10.492Z,84.20
2019-01-24T22:16:39.685Z,84.30
2019-01-24T22:19:07.862Z,84.60
2019-01-24T22:21:36.038Z,84.40
2019-01-24T22:24:04.846Z,84.40
2019-01-24T22:26:32.998Z,84.10
2019-01-24T22:29:01.183Z,86.70
2019-01-24T22:31:29.734Z,88.30
2019-01-24T22:33:57.933Z,88.80
2019-01-24T22:36:26.090Z,88.20
2019-01-24T22:38:54.321Z,87.00
2019-01-24T22:41:22.816Z,87.90
2019-01-24T22:43:51.628Z,87.80
2019-01-24T22:46:20.233Z,87.50
2019-01-24T22:48:48.899Z,87.40
2019-01-24T22:51:17.078Z,88.20
2019-01-24T22:53:45.274Z,87.20
2019-01-24T22:56:13.425Z,86.10
2019-01-24T22:58:41.598Z,87.90
2019-01-24T23:01:32.698Z,87.90
2019-01-24T23:04:08.680Z,88.20
2019-01-24T23:06:40.788Z,89.00
2019-01-24T23:09:10.645Z,88.00
2019-01-24T23:11:39.289Z,87.20
2019-01-24T23:14:07.598Z,86.50
2019-01-24T23:16:35.896Z,86.70
2019-01-24T23:19:05.351Z,85.70
2019-01-24T23:21:33.561Z,85.90
2019-01-24T23:24:02.031Z,85.80
2019-01-24T23:26:32.413Z,85.40
2019-01-24T23:29:00.539Z,85.50
2019-01-24T23:31:29.753Z,86.30
2019-01-24T23:33:58.179Z,86.30
2019-01-24T23:36:26.405Z,86.10
2019-01-24T23:38:54.548Z,86.70
2019-01-24T23:41:23.913Z,86.50
2019-01-24T23:43:53.973Z,86.30
2019-01-24T23:46:23.474Z,85.60
2019-01-24T23:48:52.682Z,84.60
2019-01-24T23:51:20.934Z,84.20
2019-01-24T23:53:49.428Z,85.00
2019-01-24T23:56:17.638Z,86.90
2019-01-24T23:58:48.299Z,85.50
